createdAt,value
2019-04-06T00:00:15.201Z,20.20
2019-04-06T00:02:14.168Z,21.30
2019-04-06T00:03:15.155Z,20.00
2019-04-06T00:04:15.166Z,22.70
2019-04-06T00:05:15.133Z,21.90
2019-04-06T00:06:15.125Z,22.90
2019-04-06T00:07:15.108Z,22.50
2019-04-06T00:08:15.103Z,24.20
2019-04-06T00:09:15.087Z,24.40
2019-04-06T00:10:15.133Z,24.90
2019-04-06T00:11:15.075Z,25.10
2019-04-06T00:12:15.061Z,28.90
2019-04-06T00:13:15.063Z,33.80
2019-04-06T00:14:15.033Z,33.80
2019-04-06T00:15:15.031Z,32.20
2019-04-06T00:16:15.756Z,30.90
2019-04-06T00:17:15.032Z,34.10
2019-04-06T00:18:14.998Z,34.90
2019-04-06T00:19:14.984Z,37.00
2019-04-06T00:20:14.974Z,33.10
2019-04-06T00:21:14.960Z,36.40
2019-04-06T00:22:14.952Z,35.30
2019-04-06T00:23:14.964Z,37.90
2019-04-06T00:24:14.929Z,38.70
2019-04-06T00:25:14.940Z,37.50
2019-04-06T00:26:14.927Z,38.30
2019-04-06T00:27:14.953Z,37.60
2019-04-06T00:28:14.906Z,38.80
2019-04-06T00:29:14.890Z,41.80
2019-04-06T00:30:14.939Z,39.80
2019-04-06T00:31:14.873Z,40.40
2019-04-06T00:32:14.860Z,39.80
2019-04-06T00:33:14.870Z,35.70
2019-04-06T00:34:14.838Z,41.80
2019-04-06T00:35:14.827Z,35.20
2019-04-06T00:36:14.828Z,39.00
2019-04-06T00:37:14.787Z,39.20
2019-04-06T00:38:14.837Z,37.00
2019-04-06T00:39:14.788Z,40.50
2019-04-06T00:40:14.813Z,41.80
2019-04-06T00:41:14.764Z,38.20
2019-04-06T00:42:14.768Z,40.50
2019-04-06T00:43:14.755Z,40.30
2019-04-06T00:44:16.761Z,42.80
2019-04-06T00:45:14.720Z,45.90
2019-04-06T00:46:14.706Z,45.00
2019-04-06T00:47:14.699Z,41.70
2019-04-06T00:48:14.693Z,43.30
2019-04-06T00:49:14.679Z,40.60
2019-04-06T00:50:14.689Z,44.80
2019-04-06T00:51:14.651Z,40.40
2019-04-06T00:52:14.642Z,43.60
2019-04-06T00:53:14.633Z,43.00
2019-04-06T00:54:16.226Z,43.60
2019-04-06T00:55:14.643Z,43.60
2019-04-06T00:56:14.606Z,44.80
2019-04-06T00:57:14.591Z,45.60
2019-04-06T00:58:14.575Z,46.70
2019-04-06T00:59:15.256Z,45.80
2019-04-06T01:00:14.557Z,43.80
2019-04-06T01:01:14.568Z,40.40
2019-04-06T01:02:14.581Z,41.70
2019-04-06T01:03:14.523Z,43.10
2019-04-06T01:04:14.519Z,41.90
2019-04-06T01:05:14.499Z,40.10
2019-04-06T01:06:14.501Z,40.70
2019-04-06T01:07:14.514Z,44.10
2019-04-06T01:08:14.465Z,42.50
2019-04-06T01:09:14.460Z,42.00
2019-04-06T01:10:14.451Z,44.80
2019-04-06T01:11:14.451Z,43.20
2019-04-06T01:12:14.427Z,44.50
2019-04-06T01:13:14.466Z,41.70
2019-04-06T01:14:14.395Z,43.60
2019-04-06T01:15:14.452Z,46.20
2019-04-06T01:16:14.371Z,43.60
2019-04-06T01:17:14.363Z,45.20
2019-04-06T01:18:14.356Z,42.90
2019-04-06T01:19:14.387Z,44.00
2019-04-06T01:20:14.342Z,46.20
2019-04-06T01:21:14.321Z,44.50
2019-04-06T01:22:14.307Z,44.80
2019-04-06T01:23:15.254Z,43.60
2019-04-06T01:24:14.292Z,45.80
2019-04-06T01:25:14.341Z,45.50
2019-04-06T01:26:14.267Z,43.30
2019-04-06T01:27:14.265Z,41.60
2019-04-06T01:28:14.270Z,45.40
2019-04-06T01:29:14.234Z,45.40
2019-04-06T01:30:14.751Z,45.70
2019-04-06T01:31:14.225Z,43.30
2019-04-06T01:32:14.207Z,45.70
2019-04-06T01:33:14.198Z,46.10
2019-04-06T01:34:14.185Z,45.30
2019-04-06T01:35:14.174Z,42.70
2019-04-06T01:36:14.216Z,43.20
2019-04-06T01:37:14.152Z,43.70
2019-04-06T01:38:14.139Z,44.90
2019-04-06T01:39:14.129Z,39.60
2019-04-06T01:40:14.117Z,41.20
2019-04-06T01:41:14.097Z,43.90
2019-04-06T01:42:14.129Z,40.50
2019-04-06T01:43:14.081Z,41.80
2019-04-06T01:44:14.071Z,45.20
2019-04-06T01:45:14.082Z,44.20
2019-04-06T01:46:14.059Z,42.30
2019-04-06T01:47:14.041Z,40.50
2019-04-06T01:48:14.142Z,40.60
2019-04-06T01:49:14.017Z,38.90
2019-04-06T01:50:14.009Z,41.30
2019-04-06T01:51:13.987Z,43.00
2019-04-06T01:52:13.983Z,42.30
2019-04-06T01:53:14.027Z,38.00
2019-04-06T01:54:13.969Z,38.00
2019-04-06T01:55:13.951Z,36.90
2019-04-06T01:56:18.792Z,40.30
2019-04-06T01:58:12.917Z,38.50
2019-04-06T01:59:14.295Z,39.20
2019-04-06T02:00:13.905Z,38.60
2019-04-06T02:01:13.882Z,41.60
2019-04-06T02:02:14.859Z,40.60
2019-04-06T02:03:13.866Z,39.80
2019-04-06T02:04:13.857Z,43.20
2019-04-06T02:05:13.841Z,40.40
2019-04-06T02:06:13.829Z,41.50
2019-04-06T02:07:13.898Z,41.40
2019-04-06T02:08:13.811Z,42.50
2019-04-06T02:09:13.821Z,40.30
2019-04-06T02:10:13.817Z,38.20
2019-04-06T02:11:13.776Z,38.20
2019-04-06T02:12:13.757Z,42.30
2019-04-06T02:13:13.750Z,38.10
2019-04-06T02:14:13.744Z,37.80
2019-04-06T02:15:13.729Z,37.60
2019-04-06T02:16:13.728Z,37.70
2019-04-06T02:17:13.703Z,41.00
2019-04-06T02:18:13.735Z,37.70
2019-04-06T02:19:13.682Z,35.90
2019-04-06T02:20:13.672Z,38.70
2019-04-06T02:21:13.669Z,39.90
2019-04-06T02:22:13.746Z,39.80
2019-04-06T02:23:14.224Z,37.30
2019-04-06T02:24:13.626Z,39.80
2019-04-06T02:25:13.623Z,37.70
2019-04-06T02:26:13.633Z,40.80
2019-04-06T02:27:13.611Z,37.90
2019-04-06T02:28:13.580Z,38.70
2019-04-06T02:29:13.566Z,35.30
2019-04-06T02:30:13.559Z,35.50
2019-04-06T02:31:13.556Z,36.00
2019-04-06T02:32:13.566Z,35.20
2019-04-06T02:33:14.696Z,36.10
2019-04-06T02:34:13.515Z,34.90
2019-04-06T02:35:13.505Z,36.10
2019-04-06T02:36:13.493Z,36.70
2019-04-06T02:37:13.485Z,38.10
2019-04-06T02:38:13.498Z,35.40
2019-04-06T02:39:13.463Z,36.30
2019-04-06T02:41:12.441Z,35.50
2019-04-06T02:42:13.476Z,32.20
2019-04-06T02:43:13.417Z,34.00
2019-04-06T02:44:13.408Z,31.00
2019-04-06T02:45:13.409Z,31.30
2019-04-06T02:46:13.391Z,28.30
2019-04-06T02:47:13.382Z,29.30
2019-04-06T02:48:13.403Z,28.30
2019-04-06T02:49:13.353Z,28.30
2019-04-06T02:50:13.358Z,28.60
2019-04-06T02:51:13.326Z,33.00
2019-04-06T02:52:13.317Z,31.00
2019-04-06T02:53:13.414Z,30.00
2019-04-06T02:54:13.303Z,33.70
2019-04-06T02:55:13.291Z,40.60
2019-04-06T02:56:13.278Z,31.00
2019-04-06T02:58:12.248Z,35.40
2019-04-06T02:59:13.267Z,34.50
2019-04-06T03:00:13.281Z,31.90
2019-04-06T03:01:13.213Z,31.80
2019-04-06T03:02:13.209Z,35.20
2019-04-06T03:03:13.484Z,34.30
2019-04-06T03:04:13.225Z,32.50
2019-04-06T03:05:13.199Z,36.10
2019-04-06T03:06:13.194Z,32.90
2019-04-06T03:07:13.154Z,34.60
2019-04-06T03:08:13.139Z,34.50
2019-04-06T03:09:13.166Z,33.40
2019-04-06T03:10:15.728Z,32.80
2019-04-06T03:11:14.774Z,33.90
2019-04-06T03:12:13.102Z,32.50
2019-04-06T03:13:13.085Z,31.30
2019-04-06T03:14:13.225Z,35.20
2019-04-06T03:15:13.068Z,30.50
2019-04-06T03:16:13.052Z,31.40
2019-04-06T03:17:15.751Z,31.10
2019-04-06T03:18:13.033Z,30.40
2019-04-06T03:19:13.020Z,30.40
2019-04-06T03:20:13.133Z,30.60
2019-04-06T03:21:12.999Z,29.70
2019-04-06T03:22:13.013Z,30.20
2019-04-06T03:23:13.269Z,31.80
2019-04-06T03:25:11.954Z,30.40
2019-04-06T03:26:12.948Z,28.60
2019-04-06T03:27:13.725Z,31.10
2019-04-06T03:28:12.923Z,28.80
2019-04-06T03:29:12.925Z,27.50
2019-04-06T03:30:12.899Z,27.40
2019-04-06T03:31:13.359Z,26.20
2019-04-06T03:32:12.887Z,28.50
2019-04-06T03:33:12.895Z,27.90
2019-04-06T03:34:13.028Z,26.00
2019-04-06T03:35:13.124Z,29.00
2019-04-06T03:36:12.849Z,25.50
2019-04-06T03:37:12.928Z,25.60
2019-04-06T03:38:12.815Z,26.20
2019-04-06T03:39:12.834Z,26.30
2019-04-06T03:40:12.804Z,32.10
2019-04-06T03:41:12.781Z,28.50
2019-04-06T03:42:12.823Z,26.00
2019-04-06T03:43:12.758Z,28.80
2019-04-06T03:44:12.775Z,26.20
2019-04-06T03:45:12.794Z,28.70
2019-04-06T03:46:12.749Z,27.60
2019-04-06T03:47:13.217Z,28.70
2019-04-06T03:48:12.707Z,25.90
2019-04-06T03:49:12.778Z,27.10
2019-04-06T03:50:12.700Z,26.50
2019-04-06T03:51:13.239Z,26.40
2019-04-06T03:52:12.653Z,27.80
2019-04-06T03:53:12.676Z,26.20
2019-04-06T03:54:12.635Z,25.30
2019-04-06T03:55:12.836Z,28.50
2019-04-06T03:56:12.651Z,25.00
2019-04-06T03:57:16.296Z,28.00
2019-04-06T03:58:12.687Z,25.70
2019-04-06T03:59:13.211Z,26.80
2019-04-06T04:00:12.712Z,26.10
2019-04-06T04:01:13.235Z,28.00
2019-04-06T04:02:12.701Z,29.60
2019-04-06T04:03:12.533Z,30.70
2019-04-06T04:04:12.524Z,30.20
2019-04-06T04:05:12.510Z,30.20
2019-04-06T04:06:12.640Z,28.30
2019-04-06T04:07:12.515Z,27.10
2019-04-06T04:08:12.469Z,28.10
2019-04-06T04:09:12.460Z,27.60
2019-04-06T04:10:12.513Z,28.00
2019-04-06T04:11:12.438Z,27.00
2019-04-06T04:12:12.452Z,27.30
2019-04-06T04:14:11.410Z,27.60
2019-04-06T04:15:12.719Z,25.50
2019-04-06T04:16:12.387Z,29.20
2019-04-06T04:17:12.413Z,27.40
2019-04-06T04:18:12.535Z,27.10
2019-04-06T04:19:12.362Z,29.00
2019-04-06T04:20:12.344Z,31.20
2019-04-06T04:21:13.211Z,28.80
2019-04-06T04:22:12.449Z,31.90
2019-04-06T04:23:12.352Z,29.60
2019-04-06T04:24:13.205Z,29.30
2019-04-06T04:25:12.323Z,28.30
2019-04-06T04:26:12.287Z,25.80
2019-04-06T04:27:12.274Z,27.10
2019-04-06T04:28:12.260Z,29.50
2019-04-06T04:29:12.358Z,30.60
2019-04-06T04:30:15.025Z,31.70
2019-04-06T04:31:12.222Z,29.80
2019-04-06T04:32:12.400Z,31.90
2019-04-06T04:33:12.207Z,26.10
2019-04-06T04:34:12.704Z,28.20
2019-04-06T04:35:12.179Z,28.50
2019-04-06T04:36:12.249Z,29.90
2019-04-06T04:37:12.173Z,28.00
2019-04-06T04:39:11.133Z,30.90
2019-04-06T04:40:14.700Z,29.50
2019-04-06T04:41:12.121Z,30.50
2019-04-06T04:42:12.742Z,28.50
2019-04-06T04:43:12.234Z,26.90
2019-04-06T04:44:12.093Z,28.30
2019-04-06T04:45:12.086Z,28.40
2019-04-06T04:47:11.053Z,33.50
2019-04-06T04:48:12.140Z,29.00
2019-04-06T04:49:12.027Z,31.20
2019-04-06T04:50:12.138Z,33.70
2019-04-06T04:51:12.006Z,28.10
2019-04-06T04:52:14.695Z,30.10
2019-04-06T04:53:11.992Z,26.40
2019-04-06T04:54:11.972Z,27.00
2019-04-06T04:55:11.957Z,27.60
2019-04-06T04:56:12.115Z,27.60
2019-04-06T04:57:11.941Z,27.20
2019-04-06T04:58:11.924Z,25.70
2019-04-06T04:59:14.692Z,27.70
2019-04-06T05:00:11.905Z,26.10
2019-04-06T05:01:11.893Z,28.30
2019-04-06T05:02:11.897Z,28.00
2019-04-06T05:03:11.871Z,24.90
2019-04-06T05:04:11.863Z,27.80
2019-04-06T05:05:11.857Z,27.30
2019-04-06T05:06:12.691Z,25.20
2019-04-06T05:07:11.968Z,27.10
2019-04-06T05:08:11.815Z,26.70
2019-04-06T05:09:11.812Z,26.20
2019-04-06T05:10:14.696Z,24.50
2019-04-06T05:11:11.778Z,25.60
2019-04-06T05:12:11.817Z,27.10
2019-04-06T05:13:11.760Z,27.60
2019-04-06T05:14:11.748Z,27.70
2019-04-06T05:15:11.748Z,26.20
2019-04-06T05:16:11.727Z,25.10
2019-04-06T05:17:11.723Z,27.40
2019-04-06T05:18:14.693Z,26.10
2019-04-06T05:19:11.695Z,28.00
2019-04-06T05:20:11.684Z,27.30
2019-04-06T05:21:11.756Z,27.30
2019-04-06T05:22:12.212Z,26.30
2019-04-06T05:23:11.652Z,28.00
2019-04-06T05:24:11.680Z,26.10
2019-04-06T05:25:11.628Z,25.60
2019-04-06T05:26:11.641Z,28.20
2019-04-06T05:27:11.644Z,28.20
2019-04-06T05:28:11.607Z,25.90
2019-04-06T05:29:11.590Z,29.70
2019-04-06T05:30:11.618Z,26.30
2019-04-06T05:31:11.719Z,26.40
2019-04-06T05:32:11.568Z,30.80
2019-04-06T05:33:11.543Z,27.20
2019-04-06T05:34:11.546Z,29.70
2019-04-06T05:35:11.672Z,28.20
2019-04-06T05:36:11.590Z,27.80
2019-04-06T05:38:10.494Z,29.40
2019-04-06T05:39:11.475Z,30.10
2019-04-06T05:40:11.483Z,26.60
2019-04-06T05:41:11.450Z,28.90
2019-04-06T05:42:11.450Z,30.20
2019-04-06T05:43:11.445Z,28.80
2019-04-06T05:44:11.425Z,32.30
2019-04-06T05:45:11.408Z,28.40
2019-04-06T05:47:10.422Z,29.20
2019-04-06T05:48:11.408Z,28.70
2019-04-06T05:49:11.368Z,27.80
2019-04-06T05:50:11.358Z,28.20
2019-04-06T05:51:11.397Z,25.90
2019-04-06T05:52:11.647Z,25.00
2019-04-06T05:53:11.321Z,27.20
2019-04-06T05:54:11.321Z,26.30
2019-04-06T05:55:11.317Z,26.30
2019-04-06T05:56:11.405Z,26.60
2019-04-06T05:57:11.285Z,26.50
2019-04-06T05:58:11.269Z,23.50
2019-04-06T05:59:11.256Z,26.10
2019-04-06T06:00:11.589Z,24.40
2019-04-06T06:01:11.431Z,26.20
2019-04-06T06:02:11.467Z,25.90
2019-04-06T06:03:11.507Z,26.50
2019-04-06T06:04:11.483Z,28.40
2019-04-06T06:05:11.483Z,26.00
2019-04-06T06:06:12.539Z,30.30
2019-04-06T06:07:11.172Z,24.40
2019-04-06T06:08:11.357Z,26.80
2019-04-06T06:10:10.136Z,24.30
2019-04-06T06:11:11.142Z,25.80
2019-04-06T06:12:11.126Z,26.90
2019-04-06T06:14:10.255Z,26.10
2019-04-06T06:15:11.080Z,25.90
2019-04-06T06:16:12.099Z,32.30
2019-04-06T06:17:11.231Z,24.10
2019-04-06T06:18:11.075Z,26.30
2019-04-06T06:19:11.059Z,24.40
2019-04-06T06:20:11.048Z,26.10
2019-04-06T06:21:11.169Z,27.10
2019-04-06T06:22:11.006Z,24.40
2019-04-06T06:23:10.994Z,24.40
2019-04-06T06:24:10.981Z,26.60
2019-04-06T06:25:10.997Z,32.30
2019-04-06T06:26:10.957Z,31.80
2019-04-06T06:27:10.951Z,24.80
2019-04-06T06:28:15.253Z,28.40
2019-04-06T06:29:10.928Z,24.70
2019-04-06T06:30:10.928Z,27.20
2019-04-06T06:31:10.944Z,27.40
2019-04-06T06:32:10.918Z,26.20
2019-04-06T06:33:11.118Z,25.10
2019-04-06T06:34:10.874Z,26.70
2019-04-06T06:35:10.897Z,26.70
2019-04-06T06:36:10.858Z,29.50
2019-04-06T06:37:10.850Z,26.10
2019-04-06T06:38:10.830Z,25.00
2019-04-06T06:39:10.817Z,29.50
2019-04-06T06:40:10.947Z,24.10
2019-04-06T06:41:10.870Z,33.40
2019-04-06T06:42:10.816Z,24.20
2019-04-06T06:43:10.782Z,27.90
2019-04-06T06:44:10.766Z,27.00
2019-04-06T06:45:13.683Z,26.80
2019-04-06T06:46:10.742Z,26.60
2019-04-06T06:47:10.728Z,23.80
2019-04-06T06:49:10.659Z,23.50
2019-04-06T06:50:10.692Z,25.50
2019-04-06T06:52:09.707Z,24.00
2019-04-06T06:53:10.670Z,25.40
2019-04-06T06:54:10.813Z,26.40
2019-04-06T06:55:10.644Z,28.40
2019-04-06T06:56:10.642Z,22.20
2019-04-06T06:57:10.644Z,26.50
2019-04-06T06:58:10.619Z,25.70
2019-04-06T06:59:10.598Z,24.40
2019-04-06T07:00:10.609Z,23.00
2019-04-06T07:01:10.576Z,22.30
2019-04-06T07:02:10.566Z,24.50
2019-04-06T07:03:10.608Z,22.90
2019-04-06T07:04:10.539Z,22.00
2019-04-06T07:05:10.551Z,25.00
2019-04-06T07:06:10.523Z,24.30
2019-04-06T07:07:10.512Z,26.10
2019-04-06T07:08:10.652Z,24.10
2019-04-06T07:09:10.566Z,23.90
2019-04-06T07:10:10.478Z,25.10
2019-04-06T07:11:10.475Z,24.10
2019-04-06T07:12:10.467Z,29.10
2019-04-06T07:13:10.442Z,24.50
2019-04-06T07:14:11.173Z,28.20
2019-04-06T07:15:10.442Z,25.10
2019-04-06T07:16:10.420Z,23.10
2019-04-06T07:17:10.412Z,23.50
2019-04-06T07:18:10.404Z,22.60
2019-04-06T07:19:10.375Z,21.00
2019-04-06T07:20:10.418Z,20.20
2019-04-06T07:21:10.361Z,20.90
2019-04-06T07:22:10.348Z,21.20
2019-04-06T07:23:10.341Z,21.30
2019-04-06T07:24:10.323Z,25.70
2019-04-06T07:25:13.154Z,24.30
2019-04-06T07:26:15.839Z,26.00
2019-04-06T07:27:10.301Z,23.80
2019-04-06T07:28:10.297Z,21.20
2019-04-06T07:29:10.281Z,23.00
2019-04-06T07:30:10.260Z,25.60
2019-04-06T07:31:10.249Z,23.00
2019-04-06T07:32:10.518Z,20.60
2019-04-06T07:33:10.227Z,21.50
2019-04-06T07:34:11.153Z,21.40
2019-04-06T07:35:10.210Z,22.30
2019-04-06T07:36:10.226Z,22.30
2019-04-06T07:37:10.188Z,24.90
2019-04-06T07:38:11.692Z,22.20
2019-04-06T07:39:10.290Z,21.70
2019-04-06T07:40:10.154Z,26.20
2019-04-06T07:41:10.154Z,21.50
2019-04-06T07:42:10.149Z,24.60
2019-04-06T07:43:10.117Z,22.30
2019-04-06T07:44:10.117Z,21.30
2019-04-06T07:45:10.095Z,20.80
2019-04-06T07:47:09.083Z,22.70
2019-04-06T07:48:10.101Z,21.80
2019-04-06T07:49:10.639Z,22.10
2019-04-06T07:50:10.045Z,20.40
2019-04-06T07:51:10.212Z,21.10
2019-04-06T07:52:10.021Z,21.40
2019-04-06T07:53:10.016Z,22.10
2019-04-06T07:54:10.046Z,24.20
2019-04-06T07:55:09.990Z,20.50
2019-04-06T07:56:09.983Z,24.80
2019-04-06T07:57:09.978Z,21.70
2019-04-06T07:59:11.646Z,21.40
2019-04-06T08:00:10.196Z,23.50
2019-04-06T08:01:09.925Z,25.00
2019-04-06T08:03:08.893Z,23.10
2019-04-06T08:04:09.887Z,22.30
2019-04-06T08:05:10.117Z,21.30
2019-04-06T08:06:09.905Z,21.80
2019-04-06T08:07:09.912Z,24.30
2019-04-06T08:08:10.104Z,23.90
2019-04-06T08:09:10.026Z,23.10
2019-04-06T08:10:09.819Z,24.90
2019-04-06T08:11:09.823Z,20.90
2019-04-06T08:12:09.839Z,26.40
2019-04-06T08:14:08.778Z,20.70
2019-04-06T08:15:10.042Z,20.90
2019-04-06T08:16:09.818Z,23.00
2019-04-06T08:17:09.830Z,28.70
2019-04-06T08:18:09.777Z,22.90
2019-04-06T08:19:09.857Z,29.80
2019-04-06T08:20:09.714Z,27.60
2019-04-06T08:21:09.696Z,20.10
2019-04-06T08:22:09.740Z,19.80
2019-04-06T08:23:09.847Z,23.10
2019-04-06T08:24:09.739Z,20.30
2019-04-06T08:25:10.192Z,18.70
2019-04-06T08:26:09.653Z,19.40
2019-04-06T08:27:12.257Z,22.00
2019-04-06T08:28:09.639Z,21.10
2019-04-06T08:29:09.608Z,17.40
2019-04-06T08:30:09.596Z,17.90
2019-04-06T08:31:09.641Z,18.70
2019-04-06T08:32:09.582Z,22.80
2019-04-06T08:33:09.611Z,19.10
2019-04-06T08:34:09.550Z,17.00
2019-04-06T08:35:09.543Z,16.90
2019-04-06T08:36:09.532Z,17.30
2019-04-06T08:37:09.527Z,20.40
2019-04-06T08:38:09.519Z,17.30
2019-04-06T08:39:09.524Z,18.40
2019-04-06T08:40:09.503Z,20.60
2019-04-06T08:41:09.824Z,19.90
2019-04-06T08:42:09.464Z,16.70
2019-04-06T08:43:09.465Z,19.00
2019-04-06T08:44:09.437Z,20.40
2019-04-06T08:45:09.449Z,17.30
2019-04-06T08:46:10.135Z,21.70
2019-04-06T08:47:09.405Z,27.40
2019-04-06T08:48:09.399Z,20.60
2019-04-06T08:49:09.383Z,20.90
2019-04-06T08:50:09.413Z,17.60
2019-04-06T08:51:09.360Z,17.30
2019-04-06T08:52:11.420Z,17.70
2019-04-06T08:53:09.336Z,20.50
2019-04-06T08:54:09.336Z,17.00
2019-04-06T08:55:09.318Z,20.10
2019-04-06T08:56:09.328Z,19.30
2019-04-06T08:57:09.414Z,22.90
2019-04-06T08:58:09.281Z,23.40
2019-04-06T08:59:12.072Z,17.00
2019-04-06T09:00:09.275Z,17.00
2019-04-06T09:01:09.253Z,17.90
2019-04-06T09:02:09.270Z,21.60
2019-04-06T09:03:09.413Z,17.10
2019-04-06T09:04:09.213Z,18.10
2019-04-06T09:05:09.215Z,22.40
2019-04-06T09:06:09.235Z,18.60
2019-04-06T09:07:09.185Z,19.50
2019-04-06T09:08:09.173Z,19.30
2019-04-06T09:09:09.179Z,24.40
2019-04-06T09:10:09.174Z,23.40
2019-04-06T09:11:09.153Z,22.70
2019-04-06T09:12:09.155Z,21.00
2019-04-06T09:13:09.117Z,19.70
2019-04-06T09:14:09.206Z,19.10
2019-04-06T09:15:09.195Z,20.60
2019-04-06T09:16:09.097Z,27.90
2019-04-06T09:17:09.188Z,27.30
2019-04-06T09:18:09.246Z,17.90
2019-04-06T09:19:09.063Z,23.60
2019-04-06T09:20:09.056Z,20.80
2019-04-06T09:21:09.034Z,19.70
2019-04-06T09:22:09.027Z,19.40
2019-04-06T09:23:09.035Z,21.00
2019-04-06T09:25:07.987Z,18.50
2019-04-06T09:26:08.975Z,28.30
2019-04-06T09:27:08.967Z,22.90
2019-04-06T09:28:09.670Z,21.50
2019-04-06T09:29:08.955Z,18.80
2019-04-06T09:30:09.132Z,19.90
2019-04-06T09:31:08.923Z,19.50
2019-04-06T09:32:08.918Z,18.20
2019-04-06T09:33:08.911Z,17.70
2019-04-06T09:34:08.911Z,19.30
2019-04-06T09:35:09.156Z,18.40
2019-04-06T09:36:08.863Z,18.50
2019-04-06T09:37:08.855Z,19.70
2019-04-06T09:38:11.631Z,18.00
2019-04-06T09:39:08.837Z,18.00
2019-04-06T09:40:08.848Z,20.00
2019-04-06T09:41:08.864Z,19.40
2019-04-06T09:42:08.804Z,18.10
2019-04-06T09:43:08.797Z,19.70
2019-04-06T09:44:08.784Z,19.20
2019-04-06T09:45:08.768Z,18.60
2019-04-06T09:46:08.783Z,21.10
2019-04-06T09:47:11.631Z,18.30
2019-04-06T09:48:08.737Z,19.10
2019-04-06T09:49:08.727Z,19.90
2019-04-06T09:50:08.949Z,19.50
2019-04-06T09:51:08.701Z,20.40
2019-04-06T09:52:08.764Z,20.00
2019-04-06T09:53:08.753Z,17.50
2019-04-06T09:54:08.848Z,20.10
2019-04-06T09:55:08.661Z,17.10
2019-04-06T09:56:08.652Z,20.50
2019-04-06T09:57:08.639Z,16.40
2019-04-06T09:58:08.954Z,18.10
2019-04-06T09:59:08.621Z,18.80
2019-04-06T10:00:11.140Z,18.20
2019-04-06T10:03:07.570Z,17.40
2019-04-06T10:04:08.660Z,18.20
2019-04-06T10:05:08.543Z,19.30
2019-04-06T10:06:08.539Z,18.80
2019-04-06T10:07:08.547Z,16.50
2019-04-06T10:08:08.726Z,15.90
2019-04-06T10:09:08.503Z,20.20
2019-04-06T10:10:08.493Z,16.70
2019-04-06T10:11:08.488Z,16.60
2019-04-06T10:12:08.517Z,14.90
2019-04-06T10:13:08.739Z,18.70
2019-04-06T10:14:08.586Z,15.50
2019-04-06T10:15:08.455Z,15.20
2019-04-06T10:16:08.430Z,16.00
2019-04-06T10:17:08.423Z,14.30
2019-04-06T10:18:08.436Z,15.20
2019-04-06T10:19:08.404Z,15.90
2019-04-06T10:20:08.750Z,17.30
2019-04-06T10:21:08.475Z,15.20
2019-04-06T10:22:08.565Z,15.50
2019-04-06T10:23:11.123Z,15.90
2019-04-06T10:24:08.647Z,19.80
2019-04-06T10:25:10.888Z,14.60
2019-04-06T10:26:08.329Z,14.50
2019-04-06T10:27:08.546Z,15.50
2019-04-06T10:28:08.524Z,15.60
2019-04-06T10:29:08.667Z,16.00
2019-04-06T10:30:08.293Z,15.50
2019-04-06T10:31:08.267Z,16.40
2019-04-06T10:32:08.261Z,15.60
2019-04-06T10:33:08.270Z,15.40
2019-04-06T10:34:11.321Z,16.80
2019-04-06T10:35:08.433Z,14.50
2019-04-06T10:36:08.223Z,15.60
2019-04-06T10:37:08.207Z,18.60
2019-04-06T10:38:08.213Z,16.80
2019-04-06T10:39:08.181Z,16.60
2019-04-06T10:40:08.198Z,17.20
2019-04-06T10:41:08.162Z,16.30
2019-04-06T10:42:08.149Z,16.70
2019-04-06T10:43:08.143Z,16.40
2019-04-06T10:44:08.135Z,15.50
2019-04-06T10:45:08.143Z,17.20
2019-04-06T10:46:08.111Z,16.30
2019-04-06T10:47:08.101Z,16.30
2019-04-06T10:48:08.100Z,16.80
2019-04-06T10:49:08.077Z,16.60
2019-04-06T10:50:08.062Z,15.30
2019-04-06T10:51:08.313Z,14.90
2019-04-06T10:52:08.199Z,17.40
2019-04-06T10:53:08.032Z,16.50
2019-04-06T10:54:08.011Z,16.10
2019-04-06T10:55:08.223Z,16.10
2019-04-06T10:56:08.092Z,14.70
2019-04-06T10:58:07.190Z,14.50
2019-04-06T10:59:08.119Z,15.50
2019-04-06T11:00:07.952Z,17.20
2019-04-06T11:01:07.943Z,14.80
2019-04-06T11:02:07.966Z,14.30
2019-04-06T11:03:10.616Z,21.00
2019-04-06T11:04:10.699Z,15.90
2019-04-06T11:05:10.617Z,14.20
2019-04-06T11:06:07.942Z,14.20
2019-04-06T11:07:07.882Z,15.20
2019-04-06T11:08:08.178Z,15.50
2019-04-06T11:09:07.924Z,16.20
2019-04-06T11:10:07.850Z,18.70
2019-04-06T11:11:08.077Z,15.20
2019-04-06T11:12:07.824Z,16.90
2019-04-06T11:13:07.845Z,15.40
2019-04-06T11:14:08.625Z,16.30
2019-04-06T11:15:07.889Z,17.40
2019-04-06T11:16:07.770Z,16.40
2019-04-06T11:17:07.833Z,18.50
2019-04-06T11:18:07.867Z,17.10
2019-04-06T11:19:07.990Z,19.70
2019-04-06T11:20:07.727Z,17.60
2019-04-06T11:21:07.731Z,19.00
2019-04-06T11:22:07.702Z,16.40
2019-04-06T11:23:08.611Z,14.80
2019-04-06T11:24:07.690Z,16.50
2019-04-06T11:25:07.712Z,16.20
2019-04-06T11:26:07.701Z,16.00
2019-04-06T11:27:07.665Z,15.40
2019-04-06T11:28:07.642Z,15.90
2019-04-06T11:29:07.622Z,16.30
2019-04-06T11:30:13.997Z,17.10
2019-04-06T11:31:07.667Z,18.80
2019-04-06T11:32:07.628Z,16.20
2019-04-06T11:33:07.582Z,16.40
2019-04-06T11:34:08.013Z,16.00
2019-04-06T11:35:07.570Z,18.00
2019-04-06T11:36:07.567Z,16.60
2019-04-06T11:37:07.540Z,16.90
2019-04-06T11:38:07.687Z,16.30
2019-04-06T11:39:07.520Z,19.40
2019-04-06T11:40:07.891Z,18.90
2019-04-06T11:41:07.763Z,19.30
2019-04-06T11:42:07.484Z,17.70
2019-04-06T11:43:07.598Z,16.80
2019-04-06T11:44:07.466Z,17.80
2019-04-06T11:45:08.115Z,15.50
2019-04-06T11:46:07.450Z,16.80
2019-04-06T11:47:07.473Z,15.10
2019-04-06T11:48:07.418Z,15.10
2019-04-06T11:49:07.674Z,15.90
2019-04-06T11:50:07.404Z,16.60
2019-04-06T11:51:07.472Z,14.90
2019-04-06T11:52:07.787Z,13.90
2019-04-06T11:53:07.617Z,15.30
2019-04-06T11:54:08.116Z,16.60
2019-04-06T11:55:07.350Z,19.10
2019-04-06T11:56:07.336Z,14.90
2019-04-06T11:57:07.340Z,18.30
2019-04-06T11:58:07.518Z,14.70
2019-04-06T11:59:07.662Z,14.70
2019-04-06T12:00:10.110Z,15.70
2019-04-06T12:01:07.274Z,14.90
2019-04-06T12:02:07.273Z,16.00
2019-04-06T12:03:07.304Z,17.10
2019-04-06T12:04:07.252Z,16.30
2019-04-06T12:05:07.288Z,16.60
2019-04-06T12:06:07.226Z,20.30
2019-04-06T12:07:07.236Z,19.80
2019-04-06T12:08:07.200Z,16.80
2019-04-06T12:09:07.300Z,17.40
2019-04-06T12:10:07.181Z,17.20
2019-04-06T12:11:07.175Z,18.00
2019-04-06T12:12:07.166Z,17.60
2019-04-06T12:13:07.181Z,17.00
2019-04-06T12:14:07.140Z,17.50
2019-04-06T12:15:07.147Z,18.40
2019-04-06T12:16:07.123Z,22.60
2019-04-06T12:18:06.100Z,18.60
2019-04-06T12:19:07.265Z,18.30
2019-04-06T12:20:07.115Z,23.00
2019-04-06T12:21:07.062Z,17.80
2019-04-06T12:22:07.600Z,17.20
2019-04-06T12:23:07.039Z,16.70
2019-04-06T12:24:07.089Z,20.70
2019-04-06T12:25:07.056Z,19.10
2019-04-06T12:26:07.064Z,19.00
2019-04-06T12:27:07.241Z,20.20
2019-04-06T12:28:07.605Z,19.10
2019-04-06T12:29:06.970Z,21.80
2019-04-06T12:30:07.321Z,18.50
2019-04-06T12:31:06.970Z,20.60
2019-04-06T12:32:06.950Z,21.20
2019-04-06T12:33:07.230Z,21.00
2019-04-06T12:34:06.917Z,19.00
2019-04-06T12:35:06.913Z,19.80
2019-04-06T12:36:06.919Z,20.90
2019-04-06T12:37:06.884Z,17.60
2019-04-06T12:38:06.879Z,20.20
2019-04-06T12:39:06.880Z,17.40
2019-04-06T12:40:06.904Z,20.80
2019-04-06T12:41:06.846Z,17.30
2019-04-06T12:42:07.140Z,18.10
2019-04-06T12:43:07.104Z,18.20
2019-04-06T12:44:06.811Z,18.80
2019-04-06T12:45:06.938Z,17.90
2019-04-06T12:46:09.598Z,20.90
2019-04-06T12:47:06.775Z,18.50
2019-04-06T12:48:10.143Z,22.50
2019-04-06T12:49:06.777Z,16.10
2019-04-06T12:50:07.076Z,19.10
2019-04-06T12:51:06.739Z,16.60
2019-04-06T12:52:06.721Z,16.00
2019-04-06T12:53:07.058Z,15.90
2019-04-06T12:54:09.608Z,18.50
2019-04-06T12:56:05.677Z,17.30
2019-04-06T12:57:06.672Z,17.40
2019-04-06T12:58:06.775Z,17.40
2019-04-06T12:59:06.651Z,19.00
2019-04-06T13:00:06.636Z,17.40
2019-04-06T13:02:06.138Z,16.50
2019-04-06T13:03:06.787Z,19.90
2019-04-06T13:04:06.956Z,17.80
2019-04-06T13:05:06.618Z,22.00
2019-04-06T13:06:06.572Z,17.10
2019-04-06T13:07:06.567Z,17.60
2019-04-06T13:08:06.684Z,18.20
2019-04-06T13:09:06.667Z,17.70
2019-04-06T13:10:06.543Z,17.50
2019-04-06T13:11:06.696Z,17.40
2019-04-06T13:12:09.104Z,17.50
2019-04-06T13:13:06.499Z,17.60
2019-04-06T13:14:06.525Z,16.40
2019-04-06T13:15:07.099Z,19.60
2019-04-06T13:16:06.458Z,17.90
2019-04-06T13:17:07.111Z,17.70